sensor_id;sensor_type;location;lat;lon;timestamp;P1;durP1;ratioP1;P2;durP2;ratioP2
4563;SDS011;2294;51.818;8.484;2023-07-09T00:00:38;10.13;;;7.13;;
4563;SDS011;2294;51.818;8.484;2023-07-09T00:03:05;10.03;;;6.57;;
4563;SDS011;2294;51.818;8.484;2023-07-09T00:05:32;10.50;;;7.13;;
4563;SDS011;2294;51.818;8.484;2023-07-09T00:07:59;11.77;;;7.00;;
4563;SDS011;2294;51.818;8.484;2023-07-09T00:10:28;10.40;;;6.30;;
4563;SDS011;2294;51.818;8.484;2023-07-09T00:12:55;9.83;;;7.07;;
4563;SDS011;2294;51.818;8.484;2023-07-09T00:15:22;9.47;;;6.90;;
4563;SDS011;2294;51.818;8.484;2023-07-09T00:17:52;8.50;;;6.40;;
4563;SDS011;2294;51.818;8.484;2023-07-09T00:20:18;10.63;;;6.80;;
4563;SDS011;2294;51.818;8.484;2023-07-09T00:22:45;10.13;;;6.40;;
4563;SDS011;2294;51.818;8.484;2023-07-09T00:25:17;9.60;;;6.57;;
4563;SDS011;2294;51.818;8.484;2023-07-09T00:27:47;10.93;;;6.90;;
4563;SDS011;2294;51.818;8.484;2023-07-09T00:30:18;7.67;;;6.30;;
4563;SDS011;2294;51.818;8.484;2023-07-09T00:32:46;7.33;;;6.17;;
4563;SDS011;2294;51.818;8.484;2023-07-09T00:35:13;11.67;;;5.67;;
4563;SDS011;2294;51.818;8.484;2023-07-09T00:37:41;9.57;;;6.40;;
4563;SDS011;2294;51.818;8.484;2023-07-09T00:40:10;8.33;;;6.73;;
4563;SDS011;2294;51.818;8.484;2023-07-09T00:42:44;7.70;;;5.63;;
4563;SDS011;2294;51.818;8.484;2023-07-09T00:45:17;10.40;;;6.00;;
4563;SDS011;2294;51.818;8.484;2023-07-09T00:47:51;9.17;;;6.30;;
4563;SDS011;2294;51.818;8.484;2023-07-09T00:50:25;11.20;;;6.43;;
4563;SDS011;2294;51.818;8.484;2023-07-09T00:53:01;8.33;;;6.13;;
4563;SDS011;2294;51.818;8.484;2023-07-09T00:55:36;10.60;;;7.03;;
4563;SDS011;2294;51.818;8.484;2023-07-09T00:58:09;7.60;;;6.00;;
4563;SDS011;2294;51.818;8.484;2023-07-09T01:00:41;7.87;;;5.93;;
4563;SDS011;2294;51.818;8.484;2023-07-09T01:03:13;12.97;;;6.43;;
4563;SDS011;2294;51.818;8.484;2023-07-09T01:05:46;8.57;;;6.00;;
4563;SDS011;2294;51.818;8.484;2023-07-09T01:08:17;7.77;;;5.90;;
4563;SDS011;2294;51.818;8.484;2023-07-09T01:10:45;8.10;;;6.23;;
4563;SDS011;2294;51.818;8.484;2023-07-09T01:13:14;7.90;;;6.20;;
4563;SDS011;2294;51.818;8.484;2023-07-09T01:15:43;17.73;;;6.67;;
4563;SDS011;2294;51.818;8.484;2023-07-09T01:18:11;9.63;;;5.70;;
4563;SDS011;2294;51.818;8.484;2023-07-09T01:20:40;11.93;;;5.30;;
4563;SDS011;2294;51.818;8.484;2023-07-09T01:23:09;7.60;;;6.20;;
4563;SDS011;2294;51.818;8.484;2023-07-09T01:25:37;8.53;;;5.97;;
4563;SDS011;2294;51.818;8.484;2023-07-09T01:28:08;8.07;;;5.93;;
4563;SDS011;2294;51.818;8.484;2023-07-09T01:30:36;8.40;;;6.17;;
4563;SDS011;2294;51.818;8.484;2023-07-09T01:33:04;10.27;;;6.13;;
4563;SDS011;2294;51.818;8.484;2023-07-09T01:35:34;8.40;;;5.67;;
4563;SDS011;2294;51.818;8.484;2023-07-09T01:38:06;7.73;;;6.50;;
4563;SDS011;2294;51.818;8.484;2023-07-09T01:40:35;9.20;;;7.00;;
4563;SDS011;2294;51.818;8.484;2023-07-09T01:43:02;7.67;;;5.90;;
4563;SDS011;2294;51.818;8.484;2023-07-09T01:45:32;9.93;;;6.87;;
4563;SDS011;2294;51.818;8.484;2023-07-09T01:48:00;9.53;;;6.20;;
4563;SDS011;2294;51.818;8.484;2023-07-09T01:50:28;9.20;;;6.40;;
4563;SDS011;2294;51.818;8.484;2023-07-09T01:52:55;11.60;;;6.70;;
4563;SDS011;2294;51.818;8.484;2023-07-09T01:55:23;10.13;;;6.97;;
4563;SDS011;2294;51.818;8.484;2023-07-09T01:57:52;9.03;;;6.37;;
4563;SDS011;2294;51.818;8.484;2023-07-09T02:00:19;9.77;;;6.43;;
4563;SDS011;2294;51.818;8.484;2023-07-09T02:02:46;8.70;;;6.60;;
4563;SDS011;2294;51.818;8.484;2023-07-09T02:05:15;9.50;;;7.13;;
4563;SDS011;2294;51.818;8.484;2023-07-09T02:07:43;10.70;;;7.00;;
4563;SDS011;2294;51.818;8.484;2023-07-09T02:10:10;10.63;;;6.70;;
4563;SDS011;2294;51.818;8.484;2023-07-09T02:12:38;9.00;;;7.10;;
4563;SDS011;2294;51.818;8.484;2023-07-09T02:15:07;16.60;;;7.07;;
4563;SDS011;2294;51.818;8.484;2023-07-09T02:17:35;10.30;;;6.87;;
4563;SDS011;2294;51.818;8.484;2023-07-09T02:20:02;7.73;;;6.17;;
4563;SDS011;2294;51.818;8.484;2023-07-09T02:22:30;9.57;;;6.43;;
4563;SDS011;2294;51.818;8.484;2023-07-09T02:24:57;10.30;;;7.27;;
4563;SDS011;2294;51.818;8.484;2023-07-09T02:27:24;9.40;;;6.90;;
4563;SDS011;2294;51.818;8.484;2023-07-09T02:29:51;11.73;;;6.90;;
4563;SDS011;2294;51.818;8.484;2023-07-09T02:32:21;9.30;;;7.00;;
4563;SDS011;2294;51.818;8.484;2023-07-09T02:34:49;8.40;;;6.80;;
4563;SDS011;2294;51.818;8.484;2023-07-09T02:37:18;10.03;;;6.67;;
4563;SDS011;2294;51.818;8.484;2023-07-09T02:39:46;12.50;;;8.37;;
4563;SDS011;2294;51.818;8.484;2023-07-09T02:42:14;11.67;;;7.33;;
4563;SDS011;2294;51.818;8.484;2023-07-09T02:44:42;8.83;;;7.47;;
4563;SDS011;2294;51.818;8.484;2023-07-09T02:47:10;17.33;;;8.63;;
4563;SDS011;2294;51.818;8.484;2023-07-09T02:49:39;10.70;;;7.50;;
4563;SDS011;2294;51.818;8.484;2023-07-09T02:52:06;13.23;;;7.90;;
4563;SDS011;2294;51.818;8.484;2023-07-09T02:54:33;12.60;;;8.20;;
4563;SDS011;2294;51.818;8.484;2023-07-09T02:57:00;11.87;;;7.93;;
4563;SDS011;2294;51.818;8.484;2023-07-09T02:59:28;12.40;;;7.40;;
4563;SDS011;2294;51.818;8.484;2023-07-09T03:01:54;70.77;;;9.10;;
4563;SDS011;2294;51.818;8.484;2023-07-09T03:04:22;21.80;;;8.83;;
4563;SDS011;2294;51.818;8.484;2023-07-09T03:06:50;9.80;;;7.23;;
4563;SDS011;2294;51.818;8.484;2023-07-09T03:09:17;10.00;;;7.37;;
4563;SDS011;2294;51.818;8.484;2023-07-09T03:11:44;12.13;;;8.00;;
4563;SDS011;2294;51.818;8.484;2023-07-09T03:14:11;12.73;;;8.20;;
4563;SDS011;2294;51.818;8.484;2023-07-09T03:16:38;11.27;;;7.97;;
4563;SDS011;2294;51.818;8.484;2023-07-09T03:19:05;11.57;;;7.70;;
4563;SDS011;2294;51.818;8.484;2023-07-09T03:21:32;22.10;;;8.70;;
4563;SDS011;2294;51.818;8.484;2023-07-09T03:24:01;11.83;;;7.83;;
4563;SDS011;2294;51.818;8.484;2023-07-09T03:26:28;13.70;;;8.03;;
4563;SDS011;2294;51.818;8.484;2023-07-09T03:28:55;9.43;;;7.60;;
4563;SDS011;2294;51.818;8.484;2023-07-09T03:31:22;11.47;;;8.37;;
4563;SDS011;2294;51.818;8.484;2023-07-09T03:33:50;11.20;;;7.90;;
4563;SDS011;2294;51.818;8.484;2023-07-09T03:36:17;18.57;;;8.20;;
4563;SDS011;2294;51.818;8.484;2023-07-09T03:38:45;9.90;;;7.57;;
4563;SDS011;2294;51.818;8.484;2023-07-09T03:41:13;16.87;;;8.47;;
4563;SDS011;2294;51.818;8.484;2023-07-09T03:43:40;14.33;;;8.00;;
4563;SDS011;2294;51.818;8.484;2023-07-09T03:46:07;10.17;;;7.23;;
4563;SDS011;2294;51.818;8.484;2023-07-09T03:48:34;11.10;;;6.80;;
4563;SDS011;2294;51.818;8.484;2023-07-09T03:51:01;16.03;;;8.43;;
4563;SDS011;2294;51.818;8.484;2023-07-09T03:53:28;12.63;;;7.30;;
4563;SDS011;2294;51.818;8.484;2023-07-09T03:55:55;12.10;;;8.33;;
4563;SDS011;2294;51.818;8.484;2023-07-09T03:58:26;11.20;;;7.87;;
4563;SDS011;2294;51.818;8.484;2023-07-09T04:00:53;11.17;;;8.77;;
4563;SDS011;2294;51.818;8.484;2023-07-09T04:03:21;11.33;;;7.27;;
4563;SDS011;2294;51.818;8.484;2023-07-09T04:05:48;13.00;;;9.03;;
4563;SDS011;2294;51.818;8.484;2023-07-09T04:08:15;12.50;;;8.30;;
4563;SDS011;2294;51.818;8.484;2023-07-09T04:10:43;25.93;;;8.67;;
4563;SDS011;2294;51.818;8.484;2023-07-09T04:13:10;10.10;;;7.77;;
4563;SDS011;2294;51.818;8.484;2023-07-09T04:15:38;11.13;;;7.80;;
4563;SDS011;2294;51.818;8.484;2023-07-09T04:18:05;10.23;;;8.10;;
4563;SDS011;2294;51.818;8.484;2023-07-09T04:20:32;10.03;;;8.43;;
4563;SDS011;2294;51.818;8.484;2023-07-09T04:23:00;12.73;;;8.17;;
4563;SDS011;2294;51.818;8.484;2023-07-09T04:25:27;12.83;;;7.73;;
4563;SDS011;2294;51.818;8.484;2023-07-09T04:27:54;10.43;;;8.17;;
4563;SDS011;2294;51.818;8.484;2023-07-09T04:30:21;12.40;;;7.80;;
4563;SDS011;2294;51.818;8.484;2023-07-09T04:32:50;12.40;;;7.97;;
4563;SDS011;2294;51.818;8.484;2023-07-09T04:35:17;10.17;;;7.70;;
4563;SDS011;2294;51.818;8.484;2023-07-09T04:37:44;11.83;;;8.07;;
4563;SDS011;2294;51.818;8.484;2023-07-09T04:40:11;10.30;;;7.80;;
4563;SDS011;2294;51.818;8.484;2023-07-09T04:42:39;10.70;;;7.77;;
4563;SDS011;2294;51.818;8.484;2023-07-09T04:45:07;9.33;;;7.70;;
4563;SDS011;2294;51.818;8.484;2023-07-09T04:47:36;11.77;;;8.13;;
4563;SDS011;2294;51.818;8.484;2023-07-09T04:50:05;13.10;;;8.40;;
4563;SDS011;2294;51.818;8.484;2023-07-09T04:52:33;12.63;;;8.33;;
4563;SDS011;2294;51.818;8.484;2023-07-09T04:55:00;12.67;;;8.30;;
4563;SDS011;2294;51.818;8.484;2023-07-09T04:57:27;15.33;;;8.30;;
4563;SDS011;2294;51.818;8.484;2023-07-09T04:59:54;11.10;;;8.20;;
4563;SDS011;2294;51.818;8.484;2023-07-09T05:02:21;14.67;;;8.17;;
4563;SDS011;2294;51.818;8.484;2023-07-09T05:04:49;9.43;;;7.20;;
4563;SDS011;2294;51.818;8.484;2023-07-09T05:07:17;13.03;;;8.53;;
4563;SDS011;2294;51.818;8.484;2023-07-09T05:09:44;9.67;;;7.63;;
4563;SDS011;2294;51.818;8.484;2023-07-09T05:12:12;12.53;;;8.17;;
4563;SDS011;2294;51.818;8.484;2023-07-09T05:14:39;9.90;;;8.13;;
4563;SDS011;2294;51.818;8.484;2023-07-09T05:17:06;11.17;;;7.77;;
4563;SDS011;2294;51.818;8.484;2023-07-09T05:19:33;12.70;;;6.97;;
4563;SDS011;2294;51.818;8.484;2023-07-09T05:22:00;11.83;;;7.83;;
4563;SDS011;2294;51.818;8.484;2023-07-09T05:24:28;13.20;;;8.17;;
4563;SDS011;2294;51.818;8.484;2023-07-09T05:26:55;10.13;;;7.50;;
4563;SDS011;2294;51.818;8.484;2023-07-09T05:29:22;14.80;;;7.03;;
4563;SDS011;2294;51.818;8.484;2023-07-09T05:31:49;10.40;;;7.00;;
4563;SDS011;2294;51.818;8.484;2023-07-09T05:34:16;10.80;;;7.33;;
4563;SDS011;2294;51.818;8.484;2023-07-09T05:36:43;10.73;;;6.67;;
4563;SDS011;2294;51.818;8.484;2023-07-09T05:39:10;9.27;;;6.83;;
4563;SDS011;2294;51.818;8.484;2023-07-09T05:41:38;9.73;;;6.50;;
4563;SDS011;2294;51.818;8.484;2023-07-09T05:44:05;10.30;;;6.97;;
4563;SDS011;2294;51.818;8.484;2023-07-09T05:46:35;11.00;;;7.13;;
4563;SDS011;2294;51.818;8.484;2023-07-09T05:49:03;9.47;;;6.90;;
4563;SDS011;2294;51.818;8.484;2023-07-09T05:51:30;12.43;;;7.53;;
4563;SDS011;2294;51.818;8.484;2023-07-09T05:53:57;17.47;;;7.00;;
4563;SDS011;2294;51.818;8.484;2023-07-09T05:56:24;10.80;;;6.97;;
4563;SDS011;2294;51.818;8.484;2023-07-09T05:58:52;9.93;;;7.40;;
4563;SDS011;2294;51.818;8.484;2023-07-09T06:01:19;14.40;;;6.97;;
4563;SDS011;2294;51.818;8.484;2023-07-09T06:03:47;9.40;;;6.80;;
4563;SDS011;2294;51.818;8.484;2023-07-09T06:06:14;8.83;;;6.60;;
4563;SDS011;2294;51.818;8.484;2023-07-09T06:08:42;12.53;;;7.10;;
4563;SDS011;2294;51.818;8.484;2023-07-09T06:11:09;8.43;;;6.40;;
4563;SDS011;2294;51.818;8.484;2023-07-09T06:13:35;11.17;;;6.90;;
4563;SDS011;2294;51.818;8.484;2023-07-09T06:16:04;10.50;;;6.10;;
4563;SDS011;2294;51.818;8.484;2023-07-09T06:18:31;9.70;;;6.60;;
4563;SDS011;2294;51.818;8.484;2023-07-09T06:20:59;9.00;;;6.70;;
4563;SDS011;2294;51.818;8.484;2023-07-09T06:23:27;13.20;;;6.80;;
4563;SDS011;2294;51.818;8.484;2023-07-09T06:25:54;10.30;;;7.30;;
4563;SDS011;2294;51.818;8.484;2023-07-09T06:28:22;10.67;;;7.23;;
4563;SDS011;2294;51.818;8.484;2023-07-09T06:30:50;10.07;;;6.43;;
4563;SDS011;2294;51.818;8.484;2023-07-09T06:33:19;10.77;;;7.43;;
4563;SDS011;2294;51.818;8.484;2023-07-09T06:35:47;8.70;;;6.40;;
4563;SDS011;2294;51.818;8.484;2023-07-09T06:38:15;8.90;;;6.47;;
4563;SDS011;2294;51.818;8.484;2023-07-09T06:40:42;10.20;;;6.30;;
4563;SDS011;2294;51.818;8.484;2023-07-09T06:43:09;8.80;;;5.90;;
4563;SDS011;2294;51.818;8.484;2023-07-09T06:45:36;11.80;;;6.73;;
4563;SDS011;2294;51.818;8.484;2023-07-09T06:48:03;8.50;;;6.07;;
4563;SDS011;2294;51.818;8.484;2023-07-09T06:50:33;8.50;;;5.70;;
4563;SDS011;2294;51.818;8.484;2023-07-09T06:53:01;8.67;;;5.93;;
4563;SDS011;2294;51.818;8.484;2023-07-09T06:55:28;11.00;;;5.63;;
4563;SDS011;2294;51.818;8.484;2023-07-09T06:57:55;10.57;;;5.37;;
4563;SDS011;2294;51.818;8.484;2023-07-09T07:00:22;9.23;;;6.40;;
4563;SDS011;2294;51.818;8.484;2023-07-09T07:02:49;12.00;;;7.00;;
4563;SDS011;2294;51.818;8.484;2023-07-09T07:05:16;13.00;;;6.67;;
4563;SDS011;2294;51.818;8.484;2023-07-09T07:07:45;11.60;;;6.30;;
4563;SDS011;2294;51.818;8.484;2023-07-09T07:10:12;10.77;;;6.07;;
4563;SDS011;2294;51.818;8.484;2023-07-09T07:12:43;9.00;;;6.13;;
4563;SDS011;2294;51.818;8.484;2023-07-09T07:15:13;14.27;;;6.30;;
4563;SDS011;2294;51.818;8.484;2023-07-09T07:17:41;9.87;;;5.40;;
4563;SDS011;2294;51.818;8.484;2023-07-09T07:20:09;9.93;;;6.30;;
4563;SDS011;2294;51.818;8.484;2023-07-09T07:22:36;8.80;;;6.27;;
4563;SDS011;2294;51.818;8.484;2023-07-09T07:25:06;13.30;;;6.13;;
4563;SDS011;2294;51.818;8.484;2023-07-09T07:27:34;10.13;;;5.87;;
4563;SDS011;2294;51.818;8.484;2023-07-09T07:30:02;11.13;;;6.00;;
4563;SDS011;2294;51.818;8.484;2023-07-09T07:32:30;15.13;;;6.40;;
4563;SDS011;2294;51.818;8.484;2023-07-09T07:34:57;11.00;;;6.33;;
4563;SDS011;2294;51.818;8.484;2023-07-09T07:37:23;10.93;;;6.03;;
4563;SDS011;2294;51.818;8.484;2023-07-09T07:39:50;8.77;;;6.10;;
4563;SDS011;2294;51.818;8.484;2023-07-09T07:42:18;8.30;;;5.37;;
4563;SDS011;2294;51.818;8.484;2023-07-09T07:44:45;11.43;;;6.17;;
4563;SDS011;2294;51.818;8.484;2023-07-09T07:47:12;12.20;;;6.30;;
4563;SDS011;2294;51.818;8.484;2023-07-09T07:49:39;7.80;;;5.80;;
4563;SDS011;2294;51.818;8.484;2023-07-09T07:52:06;8.80;;;5.77;;
4563;SDS011;2294;51.818;8.484;2023-07-09T07:54:33;12.03;;;5.20;;
4563;SDS011;2294;51.818;8.484;2023-07-09T07:57:00;8.73;;;5.43;;
4563;SDS011;2294;51.818;8.484;2023-07-09T07:59:29;7.97;;;5.20;;
4563;SDS011;2294;51.818;8.484;2023-07-09T08:01:59;9.60;;;6.40;;
4563;SDS011;2294;51.818;8.484;2023-07-09T08:04:26;11.50;;;5.90;;
4563;SDS011;2294;51.818;8.484;2023-07-09T08:06:53;8.70;;;5.37;;
4563;SDS011;2294;51.818;8.484;2023-07-09T08:09:20;9.93;;;5.60;;
4563;SDS011;2294;51.818;8.484;2023-07-09T08:11:47;9.97;;;6.47;;
4563;SDS011;2294;51.818;8.484;2023-07-09T08:14:14;9.97;;;6.40;;
4563;SDS011;2294;51.818;8.484;2023-07-09T08:16:42;9.73;;;5.57;;
4563;SDS011;2294;51.818;8.484;2023-07-09T08:19:09;8.17;;;5.83;;
4563;SDS011;2294;51.818;8.484;2023-07-09T08:21:36;7.53;;;5.80;;
4563;SDS011;2294;51.818;8.484;2023-07-09T08:24:03;13.33;;;7.00;;
4563;SDS011;2294;51.818;8.484;2023-07-09T08:26:31;8.17;;;5.20;;
4563;SDS011;2294;51.818;8.484;2023-07-09T08:28:58;10.90;;;5.53;;
4563;SDS011;2294;51.818;8.484;2023-07-09T08:31:25;9.50;;;5.60;;
4563;SDS011;2294;51.818;8.484;2023-07-09T08:33:53;9.30;;;5.87;;
4563;SDS011;2294;51.818;8.484;2023-07-09T08:36:20;11.93;;;5.90;;
4563;SDS011;2294;51.818;8.484;2023-07-09T08:38:47;9.60;;;6.27;;
4563;SDS011;2294;51.818;8.484;2023-07-09T08:41:20;9.77;;;6.03;;
4563;SDS011;2294;51.818;8.484;2023-07-09T08:44:03;12.37;;;6.20;;
4563;SDS011;2294;51.818;8.484;2023-07-09T08:46:40;10.10;;;5.73;;
4563;SDS011;2294;51.818;8.484;2023-07-09T08:49:17;9.20;;;5.83;;
4563;SDS011;2294;51.818;8.484;2023-07-09T08:51:47;10.57;;;6.00;;
4563;SDS011;2294;51.818;8.484;2023-07-09T08:54:26;7.10;;;5.63;;
4563;SDS011;2294;51.818;8.484;2023-07-09T08:56:56;8.23;;;5.83;;
4563;SDS011;2294;51.818;8.484;2023-07-09T08:59:26;10.27;;;5.80;;
4563;SDS011;2294;51.818;8.484;2023-07-09T09:01:54;9.20;;;5.77;;
4563;SDS011;2294;51.818;8.484;2023-07-09T09:04:27;12.97;;;6.30;;
4563;SDS011;2294;51.818;8.484;2023-07-09T09:06:58;13.13;;;5.50;;
4563;SDS011;2294;51.818;8.484;2023-07-09T09:09:33;12.40;;;5.43;;
4563;SDS011;2294;51.818;8.484;2023-07-09T09:12:08;11.77;;;5.77;;
4563;SDS011;2294;51.818;8.484;2023-07-09T09:14:41;7.60;;;5.10;;
4563;SDS011;2294;51.818;8.484;2023-07-09T09:17:11;8.67;;;5.43;;
4563;SDS011;2294;51.818;8.484;2023-07-09T09:19:44;10.10;;;5.50;;
4563;SDS011;2294;51.818;8.484;2023-07-09T09:22:15;10.10;;;5.37;;
4563;SDS011;2294;51.818;8.484;2023-07-09T09:24:52;14.20;;;6.33;;
4563;SDS011;2294;51.818;8.484;2023-07-09T09:27:24;10.13;;;6.30;;
4563;SDS011;2294;51.818;8.484;2023-07-09T09:29:51;15.70;;;5.97;;
4563;SDS011;2294;51.818;8.484;2023-07-09T09:32:20;12.00;;;6.50;;
4563;SDS011;2294;51.818;8.484;2023-07-09T09:34:52;10.27;;;5.30;;
4563;SDS011;2294;51.818;8.484;2023-07-09T09:37:29;17.80;;;6.50;;
4563;SDS011;2294;51.818;8.484;2023-07-09T09:39:58;9.83;;;6.00;;
4563;SDS011;2294;51.818;8.484;2023-07-09T09:42:28;11.67;;;5.70;;
4563;SDS011;2294;51.818;8.484;2023-07-09T09:44:55;9.70;;;5.70;;
4563;SDS011;2294;51.818;8.484;2023-07-09T09:47:23;12.60;;;5.90;;
4563;SDS011;2294;51.818;8.484;2023-07-09T09:49:54;12.17;;;6.60;;
4563;SDS011;2294;51.818;8.484;2023-07-09T09:52:24;14.57;;;6.77;;
4563;SDS011;2294;51.818;8.484;2023-07-09T09:54:56;21.30;;;5.47;;
4563;SDS011;2294;51.818;8.484;2023-07-09T09:57:29;10.23;;;5.00;;
4563;SDS011;2294;51.818;8.484;2023-07-09T09:59:56;17.70;;;6.97;;
4563;SDS011;2294;51.818;8.484;2023-07-09T10:02:25;10.97;;;6.37;;
4563;SDS011;2294;51.818;8.484;2023-07-09T10:04:52;9.63;;;6.03;;
4563;SDS011;2294;51.818;8.484;2023-07-09T10:07:21;8.00;;;6.17;;
4563;SDS011;2294;51.818;8.484;2023-07-09T10:09:54;9.20;;;6.40;;
4563;SDS011;2294;51.818;8.484;2023-07-09T10:12:32;9.70;;;6.40;;
4563;SDS011;2294;51.818;8.484;2023-07-09T10:15:11;9.67;;;5.70;;
4563;SDS011;2294;51.818;8.484;2023-07-09T10:17:49;14.23;;;6.17;;
4563;SDS011;2294;51.818;8.484;2023-07-09T10:20:25;9.43;;;6.33;;
4563;SDS011;2294;51.818;8.484;2023-07-09T10:23:00;13.73;;;5.70;;
4563;SDS011;2294;51.818;8.484;2023-07-09T10:25:39;9.10;;;6.50;;
4563;SDS011;2294;51.818;8.484;2023-07-09T10:31:00;8.40;;;5.33;;
4563;SDS011;2294;51.818;8.484;2023-07-09T10:33:35;9.43;;;5.57;;
4563;SDS011;2294;51.818;8.484;2023-07-09T10:36:19;10.80;;;6.20;;
4563;SDS011;2294;51.818;8.484;2023-07-09T10:38:55;11.60;;;6.00;;
4563;SDS011;2294;51.818;8.484;2023-07-09T10:41:26;9.60;;;5.80;;
4563;SDS011;2294;51.818;8.484;2023-07-09T10:43:57;14.17;;;5.70;;
4563;SDS011;2294;51.818;8.484;2023-07-09T10:46:28;10.50;;;6.57;;
4563;SDS011;2294;51.818;8.484;2023-07-09T10:48:58;9.17;;;5.73;;
4563;SDS011;2294;51.818;8.484;2023-07-09T10:51:31;23.50;;;5.73;;
4563;SDS011;2294;51.818;8.484;2023-07-09T10:54:00;10.23;;;5.63;;
4563;SDS011;2294;51.818;8.484;2023-07-09T10:56:35;10.10;;;5.43;;
4563;SDS011;2294;51.818;8.484;2023-07-09T10:59:03;9.17;;;5.80;;
4563;SDS011;2294;51.818;8.484;2023-07-09T11:01:40;10.80;;;5.73;;
4563;SDS011;2294;51.818;8.484;2023-07-09T11:04:18;8.23;;;5.57;;
4563;SDS011;2294;51.818;8.484;2023-07-09T11:06:56;6.47;;;4.97;;
4563;SDS011;2294;51.818;8.484;2023-07-09T11:09:27;11.47;;;5.93;;
4563;SDS011;2294;51.818;8.484;2023-07-09T11:11:58;10.80;;;5.60;;
4563;SDS011;2294;51.818;8.484;2023-07-09T11:14:30;8.90;;;6.20;;
4563;SDS011;2294;51.818;8.484;2023-07-09T11:17:00;9.70;;;5.70;;
4563;SDS011;2294;51.818;8.484;2023-07-09T11:19:28;9.43;;;5.33;;
4563;SDS011;2294;51.818;8.484;2023-07-09T11:22:03;7.90;;;5.07;;
4563;SDS011;2294;51.818;8.484;2023-07-09T11:24:34;11.60;;;5.37;;
4563;SDS011;2294;51.818;8.484;2023-07-09T11:27:02;13.40;;;4.87;;
4563;SDS011;2294;51.818;8.484;2023-07-09T11:29:45;8.50;;;5.70;;
4563;SDS011;2294;51.818;8.484;2023-07-09T11:32:17;6.83;;;4.60;;
4563;SDS011;2294;51.818;8.484;2023-07-09T11:34:45;7.63;;;5.50;;
4563;SDS011;2294;51.818;8.484;2023-07-09T11:37:14;8.73;;;4.93;;
4563;SDS011;2294;51.818;8.484;2023-07-09T11:39:42;10.23;;;4.80;;
4563;SDS011;2294;51.818;8.484;2023-07-09T11:42:27;9.13;;;4.10;;
4563;SDS011;2294;51.818;8.484;2023-07-09T11:44:58;12.43;;;4.23;;
4563;SDS011;2294;51.818;8.484;2023-07-09T11:47:30;27.53;;;5.43;;
4563;SDS011;2294;51.818;8.484;2023-07-09T11:50:01;7.57;;;4.97;;
4563;SDS011;2294;51.818;8.484;2023-07-09T11:52:33;7.37;;;4.90;;
4563;SDS011;2294;51.818;8.484;2023-07-09T11:55:03;11.43;;;5.17;;
4563;SDS011;2294;51.818;8.484;2023-07-09T11:57:48;7.47;;;4.97;;
4563;SDS011;2294;51.818;8.484;2023-07-09T12:00:18;8.00;;;4.90;;
4563;SDS011;2294;51.818;8.484;2023-07-09T12:02:45;7.90;;;4.83;;
4563;SDS011;2294;51.818;8.484;2023-07-09T12:05:12;8.60;;;5.20;;
4563;SDS011;2294;51.818;8.484;2023-07-09T12:07:46;7.90;;;4.60;;
4563;SDS011;2294;51.818;8.484;2023-07-09T12:10:22;11.23;;;4.53;;
4563;SDS011;2294;51.818;8.484;2023-07-09T12:12:53;9.53;;;4.93;;
4563;SDS011;2294;51.818;8.484;2023-07-09T12:15:22;9.63;;;5.93;;
4563;SDS011;2294;51.818;8.484;2023-07-09T12:17:57;9.60;;;5.07;;
4563;SDS011;2294;51.818;8.484;2023-07-09T12:20:25;7.43;;;4.67;;
4563;SDS011;2294;51.818;8.484;2023-07-09T12:22:57;11.27;;;5.13;;
4563;SDS011;2294;51.818;8.484;2023-07-09T12:25:25;9.43;;;4.83;;
4563;SDS011;2294;51.818;8.484;2023-07-09T12:27:53;15.27;;;5.30;;
4563;SDS011;2294;51.818;8.484;2023-07-09T12:30:20;10.20;;;4.97;;
4563;SDS011;2294;51.818;8.484;2023-07-09T12:32:47;10.37;;;5.30;;
4563;SDS011;2294;51.818;8.484;2023-07-09T12:35:17;9.60;;;5.30;;
4563;SDS011;2294;51.818;8.484;2023-07-09T12:37:46;9.80;;;5.23;;
4563;SDS011;2294;51.818;8.484;2023-07-09T12:40:16;8.43;;;5.30;;
4563;SDS011;2294;51.818;8.484;2023-07-09T12:42:47;6.17;;;4.40;;
4563;SDS011;2294;51.818;8.484;2023-07-09T12:45:15;9.80;;;4.97;;
4563;SDS011;2294;51.818;8.484;2023-07-09T12:47:44;8.53;;;5.80;;
4563;SDS011;2294;51.818;8.484;2023-07-09T12:50:26;8.03;;;5.07;;
4563;SDS011;2294;51.818;8.484;2023-07-09T12:52:56;12.77;;;5.20;;
4563;SDS011;2294;51.818;8.484;2023-07-09T12:55:29;9.00;;;5.20;;
4563;SDS011;2294;51.818;8.484;2023-07-09T12:58:07;9.13;;;4.80;;
4563;SDS011;2294;51.818;8.484;2023-07-09T13:00:37;8.83;;;5.03;;
4563;SDS011;2294;51.818;8.484;2023-07-09T13:03:08;10.90;;;5.50;;
4563;SDS011;2294;51.818;8.484;2023-07-09T13:05:39;11.47;;;5.30;;
4563;SDS011;2294;51.818;8.484;2023-07-09T13:08:17;6.60;;;4.67;;
4563;SDS011;2294;51.818;8.484;2023-07-09T13:10:46;10.43;;;5.43;;
4563;SDS011;2294;51.818;8.484;2023-07-09T13:13:16;8.00;;;5.20;;
4563;SDS011;2294;51.818;8.484;2023-07-09T13:15:47;9.40;;;5.07;;
4563;SDS011;2294;51.818;8.484;2023-07-09T13:18:16;10.07;;;5.30;;
4563;SDS011;2294;51.818;8.484;2023-07-09T13:20:43;13.07;;;5.60;;
4563;SDS011;2294;51.818;8.484;2023-07-09T13:23:14;14.30;;;5.30;;
4563;SDS011;2294;51.818;8.484;2023-07-09T13:25:42;12.37;;;5.10;;
4563;SDS011;2294;51.818;8.484;2023-07-09T13:28:16;12.67;;;5.77;;
4563;SDS011;2294;51.818;8.484;2023-07-09T13:30:45;9.63;;;5.00;;
4563;SDS011;2294;51.818;8.484;2023-07-09T13:33:12;12.63;;;5.00;;
4563;SDS011;2294;51.818;8.484;2023-07-09T13:35:41;12.07;;;5.10;;
4563;SDS011;2294;51.818;8.484;2023-07-09T13:38:11;8.33;;;5.43;;
4563;SDS011;2294;51.818;8.484;2023-07-09T13:40:40;8.10;;;4.90;;
4563;SDS011;2294;51.818;8.484;2023-07-09T13:43:09;7.80;;;5.00;;
4563;SDS011;2294;51.818;8.484;2023-07-09T13:45:40;7.30;;;5.10;;
4563;SDS011;2294;51.818;8.484;2023-07-09T13:48:10;8.60;;;5.27;;
4563;SDS011;2294;51.818;8.484;2023-07-09T13:50:46;10.83;;;4.80;;
4563;SDS011;2294;51.818;8.484;2023-07-09T13:53:16;7.80;;;5.00;;
4563;SDS011;2294;51.818;8.484;2023-07-09T13:55:44;9.83;;;5.47;;
4563;SDS011;2294;51.818;8.484;2023-07-09T13:58:12;8.70;;;5.30;;
4563;SDS011;2294;51.818;8.484;2023-07-09T14:00:42;14.53;;;5.40;;
4563;SDS011;2294;51.818;8.484;2023-07-09T14:03:12;12.50;;;5.00;;
4563;SDS011;2294;51.818;8.484;2023-07-09T14:05:42;9.63;;;4.97;;
4563;SDS011;2294;51.818;8.484;2023-07-09T14:08:10;9.47;;;4.77;;
4563;SDS011;2294;51.818;8.484;2023-07-09T14:10:37;12.13;;;5.77;;
4563;SDS011;2294;51.818;8.484;2023-07-09T14:13:05;8.17;;;5.33;;
4563;SDS011;2294;51.818;8.484;2023-07-09T14:15:32;11.90;;;4.53;;
4563;SDS011;2294;51.818;8.484;2023-07-09T14:18:00;18.93;;;5.40;;
4563;SDS011;2294;51.818;8.484;2023-07-09T14:20:28;9.13;;;4.73;;
4563;SDS011;2294;51.818;8.484;2023-07-09T14:22:55;8.90;;;4.43;;
4563;SDS011;2294;51.818;8.484;2023-07-09T14:25:22;10.40;;;5.23;;
4563;SDS011;2294;51.818;8.484;2023-07-09T14:27:50;6.50;;;5.00;;
4563;SDS011;2294;51.818;8.484;2023-07-09T14:30:19;10.17;;;5.60;;
4563;SDS011;2294;51.818;8.484;2023-07-09T14:32:49;14.90;;;5.27;;
4563;SDS011;2294;51.818;8.484;2023-07-09T14:35:19;8.03;;;5.50;;
4563;SDS011;2294;51.818;8.484;2023-07-09T14:37:49;7.87;;;5.70;;
4563;SDS011;2294;51.818;8.484;2023-07-09T14:40:17;5.90;;;4.83;;
4563;SDS011;2294;51.818;8.484;2023-07-09T14:42:46;11.27;;;5.27;;
4563;SDS011;2294;51.818;8.484;2023-07-09T14:45:18;11.07;;;5.57;;
4563;SDS011;2294;51.818;8.484;2023-07-09T14:47:47;9.20;;;4.70;;
4563;SDS011;2294;51.818;8.484;2023-07-09T14:50:14;11.10;;;5.33;;
4563;SDS011;2294;51.818;8.484;2023-07-09T14:52:43;11.67;;;5.00;;
4563;SDS011;2294;51.818;8.484;2023-07-09T14:55:15;8.70;;;5.20;;
4563;SDS011;2294;51.818;8.484;2023-07-09T14:57:43;8.60;;;5.23;;
4563;SDS011;2294;51.818;8.484;2023-07-09T15:00:14;7.63;;;5.13;;
4563;SDS011;2294;51.818;8.484;2023-07-09T15:02:43;5.70;;;4.50;;
4563;SDS011;2294;51.818;8.484;2023-07-09T15:05:12;8.73;;;4.80;;
4563;SDS011;2294;51.818;8.484;2023-07-09T15:07:43;6.70;;;5.10;;
4563;SDS011;2294;51.818;8.484;2023-07-09T15:10:15;13.10;;;5.70;;
4563;SDS011;2294;51.818;8.484;2023-07-09T15:12:43;9.07;;;4.80;;
4563;SDS011;2294;51.818;8.484;2023-07-09T15:15:12;7.40;;;4.80;;
4563;SDS011;2294;51.818;8.484;2023-07-09T15:17:47;6.93;;;5.00;;
4563;SDS011;2294;51.818;8.484;2023-07-09T15:20:14;9.53;;;5.80;;
4563;SDS011;2294;51.818;8.484;2023-07-09T15:22:44;7.83;;;4.90;;